createdAt,value
2023-05-15T00:01:36.287Z,98146.09
2023-05-15T00:04:40.212Z,98150.06
2023-05-15T00:07:42.982Z,98138.03
2023-05-15T00:10:54.103Z,98136.66
2023-05-15T00:14:03.034Z,98130.72
2023-05-15T00:17:06.180Z,98135.31
2023-05-15T00:20:11.630Z,98129.59
2023-05-15T00:23:14.136Z,98134.81
2023-05-15T00:26:16.692Z,98132.00
2023-05-15T00:29:19.482Z,98127.41
2023-05-15T00:32:22.144Z,98122.75
2023-05-15T00:35:26.409Z,98126.16
2023-05-15T00:38:29.090Z,98127.97
2023-05-15T00:41:33.009Z,98119.16
2023-05-15T00:44:36.512Z,98116.41
2023-05-15T00:47:39.818Z,98111.31
2023-05-15T00:50:44.440Z,98118.72
2023-05-15T00:53:46.977Z,98121.81
2023-05-15T00:56:51.007Z,98127.28
2023-05-15T00:59:54.082Z,98128.09
2023-05-15T01:02:56.739Z,98131.84
2023-05-15T01:06:00.851Z,98127.41
2023-05-15T01:09:04.123Z,98127.31
2023-05-15T01:12:08.930Z,98130.97
2023-05-15T01:15:12.015Z,98129.34
2023-05-15T01:18:14.667Z,98133.22
2023-05-15T01:21:33.416Z,98129.13
2023-05-15T01:24:49.142Z,98131.50
2023-05-15T01:27:53.856Z,98141.22
2023-05-15T01:30:57.302Z,98143.72
2023-05-15T01:34:03.412Z,98134.50
2023-05-15T01:37:07.074Z,98133.47
2023-05-15T01:40:11.775Z,98128.91
2023-05-15T01:43:20.102Z,98128.69
2023-05-15T01:46:24.481Z,98128.91
2023-05-15T01:49:28.412Z,98129.81
2023-05-15T01:52:35.542Z,98129.81
2023-05-15T01:55:39.138Z,98122.75
2023-05-15T01:58:42.867Z,98125.94
2023-05-15T02:01:46.010Z,98134.59
2023-05-15T02:04:49.974Z,98134.50
2023-05-15T02:07:52.966Z,98135.16
2023-05-15T02:10:56.079Z,98133.47
2023-05-15T02:14:00.172Z,98130.84
2023-05-15T02:17:02.626Z,98132.22
2023-05-15T02:20:07.678Z,98137.69
2023-05-15T02:23:10.224Z,98136.19
2023-05-15T02:26:26.538Z,98132.09
2023-05-15T02:29:35.635Z,98139.63
2023-05-15T02:32:43.570Z,98138.91
2023-05-15T02:35:50.041Z,98144.84
2023-05-15T02:38:54.348Z,98144.38
2023-05-15T02:41:57.944Z,98144.50
2023-05-15T02:45:01.730Z,98148.84
2023-05-15T02:48:05.108Z,98138.59
2023-05-15T02:51:08.287Z,98144.75
2023-05-15T02:54:10.849Z,98138.94
2023-05-15T02:57:13.425Z,98135.38
2023-05-15T03:00:18.061Z,98130.97
2023-05-15T03:03:20.648Z,98134.59
2023-05-15T03:06:23.174Z,98132.97
2023-05-15T03:09:26.318Z,98131.94
2023-05-15T03:12:28.907Z,98130.91
2023-05-15T03:15:32.821Z,98135.56
2023-05-15T03:18:35.432Z,98134.88
2023-05-15T03:21:38.009Z,98129.53
2023-05-15T03:24:40.537Z,98135.44
2023-05-15T03:27:43.033Z,98126.44
2023-05-15T03:30:46.917Z,98116.28
2023-05-15T03:33:49.980Z,98129.63
2023-05-15T03:36:52.539Z,98127.25
2023-05-15T03:39:55.191Z,98124.38
2023-05-15T03:42:58.271Z,98117.88
2023-05-15T03:46:02.225Z,98130.41
2023-05-15T03:49:04.763Z,98128.59
2023-05-15T03:52:07.941Z,98133.03
2023-05-15T03:55:10.642Z,98131.97
2023-05-15T03:58:13.163Z,98126.59
2023-05-15T04:01:17.396Z,98127.19
2023-05-15T04:04:20.178Z,98120.22
2023-05-15T04:07:23.309Z,98129.78
2023-05-15T04:10:26.530Z,98125.75
2023-05-15T04:13:29.227Z,98134.72
2023-05-15T04:16:33.274Z,98126.78
2023-05-15T04:19:36.097Z,98134.06
2023-05-15T04:22:38.966Z,98135.84
2023-05-15T04:25:46.077Z,98130.63
2023-05-15T04:29:00.280Z,98129.75
2023-05-15T04:32:08.031Z,98130.19
2023-05-15T04:35:12.594Z,98130.84
2023-05-15T04:38:16.105Z,98133.38
2023-05-15T04:41:18.797Z,98130.66
2023-05-15T04:44:21.602Z,98136.22
2023-05-15T04:47:26.108Z,98129.06
2023-05-15T04:50:28.860Z,98134.72
2023-05-15T04:53:31.423Z,98133.97
2023-05-15T04:56:33.947Z,98134.81
2023-05-15T04:59:36.652Z,98139.59
2023-05-15T05:02:40.805Z,98136.72
2023-05-15T05:05:43.384Z,98145.47
2023-05-15T05:08:45.901Z,98143.28
2023-05-15T05:11:48.653Z,98151.50
2023-05-15T05:14:51.176Z,98152.31
2023-05-15T05:17:55.277Z,98153.69
2023-05-15T05:21:00.970Z,98150.56
2023-05-15T05:24:03.526Z,98149.19
2023-05-15T05:27:06.565Z,98161.22
2023-05-15T05:30:10.099Z,98155.28
2023-05-15T05:33:14.024Z,98166.41
2023-05-15T05:36:16.567Z,98163.59
2023-05-15T05:39:19.637Z,98158.94
2023-05-15T05:42:22.203Z,98164.25
2023-05-15T05:45:24.983Z,98161.59
2023-05-15T05:48:29.039Z,98154.91
2023-05-15T05:51:31.935Z,98154.69
2023-05-15T05:54:34.591Z,98152.31
2023-05-15T05:57:37.239Z,98156.56
2023-05-15T06:00:39.728Z,98158.31
2023-05-15T06:03:44.784Z,98161.22
2023-05-15T06:06:47.419Z,98160.59
2023-05-15T06:09:49.993Z,98155.28
2023-05-15T06:12:52.690Z,98157.03
2023-05-15T06:15:55.269Z,98160.25
2023-05-15T06:18:59.089Z,98163.38
2023-05-15T06:22:01.663Z,98157.50
2023-05-15T06:25:05.296Z,98161.97
2023-05-15T06:28:07.931Z,98157.78
2023-05-15T06:31:10.659Z,98158.22
2023-05-15T06:34:14.809Z,98155.75
2023-05-15T06:37:17.449Z,98158.72
2023-05-15T06:40:20.197Z,98164.06
2023-05-15T06:43:22.922Z,98166.38
2023-05-15T06:46:25.448Z,98161.59
2023-05-15T06:49:29.330Z,98163.97
2023-05-15T06:52:31.885Z,98164.34
2023-05-15T06:55:36.417Z,98162.38
2023-05-15T06:58:38.995Z,98163.41
2023-05-15T07:01:41.541Z,98165.94
2023-05-15T07:04:45.568Z,98160.00
2023-05-15T07:07:48.156Z,98156.78
2023-05-15T07:10:51.359Z,98162.75
2023-05-15T07:13:54.194Z,98156.25
2023-05-15T07:16:56.723Z,98157.28
2023-05-15T07:20:00.781Z,98164.38
2023-05-15T07:23:03.850Z,98161.22
2023-05-15T07:26:08.794Z,98153.75
2023-05-15T07:29:14.504Z,98170.31
2023-05-15T07:32:17.150Z,98161.09
2023-05-15T07:35:21.309Z,98165.38
2023-05-15T07:38:24.057Z,98163.91
2023-05-15T07:41:26.612Z,98161.16
2023-05-15T07:44:29.215Z,98162.34
2023-05-15T07:47:31.713Z,98161.69
2023-05-15T07:50:35.583Z,98161.22
2023-05-15T07:53:38.078Z,98160.63
2023-05-15T07:56:41.427Z,98156.69
2023-05-15T07:59:43.766Z,98159.75
2023-05-15T08:02:47.398Z,98156.22
2023-05-15T08:05:51.857Z,98154.88
2023-05-15T08:08:54.455Z,98153.28
2023-05-15T08:11:57.751Z,98150.09
2023-05-15T08:15:00.243Z,98145.22
2023-05-15T08:18:02.873Z,98152.91
2023-05-15T08:21:07.387Z,98153.13
2023-05-15T08:24:09.989Z,98156.59
2023-05-15T08:27:12.833Z,98139.16
2023-05-15T08:30:15.542Z,98145.59
2023-05-15T08:33:18.155Z,98147.44
2023-05-15T08:36:22.296Z,98146.84
2023-05-15T08:39:25.701Z,98149.94
2023-05-15T08:42:29.617Z,98148.34
2023-05-15T08:45:32.052Z,98138.16
2023-05-15T08:48:38.300Z,98129.06
2023-05-15T08:51:42.457Z,98142.53
2023-05-15T08:54:47.983Z,98133.41
2023-05-15T08:57:51.713Z,98133.03
2023-05-15T09:00:54.184Z,98125.13
2023-05-15T09:03:56.925Z,98133.38
2023-05-15T09:07:01.884Z,98128.19
2023-05-15T09:10:05.628Z,98131.88
2023-05-15T09:13:08.987Z,98121.56
2023-05-15T09:16:11.663Z,98118.28
2023-05-15T09:19:15.280Z,98119.59
2023-05-15T09:22:23.352Z,98111.78
2023-05-15T09:25:37.521Z,98123.22
2023-05-15T09:28:40.897Z,98119.59
2023-05-15T09:31:43.319Z,98117.19
2023-05-15T09:34:46.048Z,98118.75
2023-05-15T09:37:59.661Z,98106.09
2023-05-15T09:41:04.061Z,98106.88
2023-05-15T09:44:07.041Z,98109.22
2023-05-15T09:47:10.763Z,98111.00
2023-05-15T09:50:13.400Z,98110.72
2023-05-15T09:53:21.480Z,98107.13
2023-05-15T09:56:24.253Z,98098.53
2023-05-15T09:59:26.778Z,98104.75
2023-05-15T10:02:32.512Z,98105.97
2023-05-15T10:08:52.270Z,98097.81
2023-05-15T10:11:54.821Z,98094.50
2023-05-15T10:14:58.412Z,98082.34
2023-05-15T10:18:01.572Z,98088.16
2023-05-15T10:21:04.701Z,98078.53
2023-05-15T10:24:09.032Z,98088.63
2023-05-15T10:27:11.918Z,98081.94
2023-05-15T10:30:16.782Z,98074.63
2023-05-15T10:33:20.634Z,98064.09
2023-05-15T10:36:23.413Z,98057.00
2023-05-15T10:39:28.470Z,98061.19
2023-05-15T10:42:32.279Z,98053.09
2023-05-15T10:45:36.104Z,98048.75
2023-05-15T10:48:39.076Z,98046.13
2023-05-15T10:51:43.473Z,98041.34
2023-05-15T10:54:47.404Z,98042.84
2023-05-15T10:57:49.928Z,98043.59
2023-05-15T11:00:52.503Z,98032.00
2023-05-15T11:04:07.655Z,98033.44
2023-05-15T11:07:14.215Z,98038.22
2023-05-15T11:10:39.527Z,98033.22
2023-05-15T11:14:13.346Z,98032.72
2023-05-15T11:17:16.537Z,98032.50
2023-05-15T11:20:19.415Z,98024.63
2023-05-15T11:23:22.761Z,98029.41
2023-05-15T11:26:34.810Z,98022.75
2023-05-15T11:29:37.284Z,98020.31
2023-05-15T11:32:44.178Z,98012.69
2023-05-15T11:35:47.909Z,98009.75
2023-05-15T11:38:51.604Z,97997.13
2023-05-15T11:41:56.063Z,97993.28
2023-05-15T11:44:58.849Z,98000.69
2023-05-15T11:48:03.354Z,98002.34
2023-05-15T11:51:06.696Z,98001.50
2023-05-15T11:54:09.530Z,98006.56
2023-05-15T11:57:13.404Z,98006.22
2023-05-15T12:00:16.957Z,97999.28
2023-05-15T12:03:24.256Z,98005.00
2023-05-15T12:06:27.455Z,98004.78
2023-05-15T12:09:29.824Z,97996.69
2023-05-15T12:12:33.763Z,98000.19
2023-05-15T12:15:38.732Z,98001.56
2023-05-15T12:18:41.309Z,98005.59
2023-05-15T12:21:47.435Z,98008.06
2023-05-15T12:24:49.996Z,97995.66
2023-05-15T12:27:54.004Z,97988.66
2023-05-15T12:30:56.830Z,97985.34
2023-05-15T12:33:59.535Z,97990.47
2023-05-15T12:37:02.090Z,97987.53
2023-05-15T12:40:10.143Z,97990.25
2023-05-15T12:43:14.545Z,97992.06
2023-05-15T12:46:17.092Z,97995.91
2023-05-15T12:49:23.381Z,97985.84
2023-05-15T12:52:29.321Z,98003.47
2023-05-15T12:55:33.507Z,98006.22
2023-05-15T12:58:38.129Z,98014.50
2023-05-15T13:01:42.161Z,98003.53
2023-05-15T13:04:47.405Z,98006.22
2023-05-15T13:07:50.100Z,98004.50
2023-05-15T13:10:57.850Z,98003.00
2023-05-15T13:14:01.757Z,98003.34
2023-05-15T13:17:04.738Z,97994.81
2023-05-15T13:20:08.706Z,97999.00
2023-05-15T13:23:12.589Z,97993.50
2023-05-15T13:26:15.232Z,97985.72
2023-05-15T13:29:19.337Z,97985.91
2023-05-15T13:32:22.009Z,97980.75
2023-05-15T13:35:24.843Z,97980.75
2023-05-15T13:38:27.372Z,97977.63
2023-05-15T13:41:29.946Z,97979.09
2023-05-15T13:44:35.734Z,97984.09
2023-05-15T13:47:39.405Z,97979.84
2023-05-15T13:50:43.205Z,97991.25
2023-05-15T13:53:46.534Z,97986.59
2023-05-15T13:56:49.248Z,97987.66
2023-05-15T13:59:53.239Z,97986.06
2023-05-15T14:02:55.750Z,97990.59
2023-05-15T14:05:58.311Z,97980.88
2023-05-15T14:09:00.778Z,97988.50
2023-05-15T14:12:03.313Z,97977.72
2023-05-15T14:15:08.321Z,97984.19
2023-05-15T14:18:10.878Z,97983.69
2023-05-15T14:21:13.515Z,97981.25
2023-05-15T14:24:16.106Z,97991.72
2023-05-15T14:27:18.620Z,97992.25
2023-05-15T14:30:23.241Z,97996.56
2023-05-15T14:33:26.395Z,97989.56
2023-05-15T14:36:28.890Z,97986.34
2023-05-15T14:39:31.428Z,98000.09
2023-05-15T14:42:34.040Z,97997.78
2023-05-15T14:45:37.905Z,98003.34
2023-05-15T14:48:40.446Z,98009.94
2023-05-15T14:51:42.997Z,97996.34
2023-05-15T14:54:51.205Z,98005.31
2023-05-15T14:57:59.808Z,98003.19
2023-05-15T15:01:03.969Z,98011.00
2023-05-15T15:04:06.865Z,98024.09
2023-05-15T15:07:11.763Z,98014.63
2023-05-15T15:10:14.272Z,98031.53
2023-05-15T15:13:17.233Z,98022.84
2023-05-15T15:16:20.912Z,98031.16
2023-05-15T15:19:24.633Z,98038.50
2023-05-15T15:22:27.258Z,98044.94
2023-05-15T15:25:32.141Z,98040.50
2023-05-15T15:28:35.294Z,98054.56
2023-05-15T15:31:39.161Z,98047.81
2023-05-15T15:34:41.728Z,98048.66
2023-05-15T15:37:44.184Z,98051.16
2023-05-15T15:40:46.768Z,98056.84
2023-05-15T15:43:49.359Z,98077.06
2023-05-15T15:46:53.247Z,98070.41
2023-05-15T15:49:55.776Z,98080.28
2023-05-15T15:52:58.552Z,98082.41
2023-05-15T15:56:01.327Z,98084.38
2023-05-15T15:59:03.928Z,98087.06
2023-05-15T16:02:08.031Z,98083.16
2023-05-15T16:05:11.039Z,98078.00
2023-05-15T16:08:13.577Z,98077.94
2023-05-15T16:11:16.616Z,98082.09
2023-05-15T16:14:20.506Z,98072.91
2023-05-15T16:17:24.421Z,98059.69
2023-05-15T16:20:27.055Z,98053.69
2023-05-15T16:23:29.796Z,98059.78
2023-05-15T16:26:32.756Z,98073.06
2023-05-15T16:29:35.367Z,98068.16
2023-05-15T16:32:39.312Z,98064.94
2023-05-15T16:35:41.834Z,98079.47
2023-05-15T16:38:44.380Z,98073.69
2023-05-15T16:41:47.033Z,98075.19
2023-05-15T16:44:49.810Z,98087.16
2023-05-15T16:47:54.054Z,98065.44
2023-05-15T16:50:56.571Z,98064.16
2023-05-15T16:53:59.470Z,98073.06
2023-05-15T16:57:01.975Z,98069.63
2023-05-15T17:00:05.278Z,98074.44
2023-05-15T17:03:09.622Z,98071.38
2023-05-15T17:06:12.228Z,98068.72
2023-05-15T17:09:15.900Z,98069.19
2023-05-15T17:12:18.672Z,98075.28
2023-05-15T17:15:21.316Z,98084.09
2023-05-15T17:18:25.352Z,98067.19
2023-05-15T17:21:27.843Z,98074.38
2023-05-15T17:24:42.203Z,98076.78
2023-05-15T17:27:52.385Z,98076.81
2023-05-15T17:30:54.858Z,98081.16
2023-05-15T17:33:58.831Z,98086.63
2023-05-15T17:37:01.394Z,98089.75
2023-05-15T17:40:04.734Z,98085.31
2023-05-15T17:43:09.711Z,98090.94
2023-05-15T17:46:12.284Z,98101.31
2023-05-15T17:49:16.204Z,98099.00
2023-05-15T17:52:18.776Z,98099.31
2023-05-15T17:55:21.499Z,98099.16
2023-05-15T17:58:24.045Z,98089.88
2023-05-15T18:01:26.580Z,98110.31
2023-05-15T18:04:30.567Z,98107.72
2023-05-15T18:07:33.184Z,98115.88
2023-05-15T18:10:35.858Z,98116.91
2023-05-15T18:13:38.342Z,98119.03
2023-05-15T18:16:41.251Z,98123.78
2023-05-15T18:19:45.580Z,98135.88
2023-05-15T18:22:48.111Z,98139.13
2023-05-15T18:25:51.719Z,98143.03
2023-05-15T18:28:54.158Z,98145.28
2023-05-15T18:31:56.787Z,98146.84
2023-05-15T18:35:00.952Z,98139.84
2023-05-15T18:38:03.631Z,98149.59
2023-05-15T18:41:06.365Z,98147.97
2023-05-15T18:44:09.052Z,98156.16
2023-05-15T18:47:11.879Z,98158.28
2023-05-15T18:50:16.269Z,98164.50
2023-05-15T18:53:18.760Z,98161.00
2023-05-15T18:56:22.509Z,98170.41
2023-05-15T18:59:25.493Z,98182.53
2023-05-15T19:02:28.449Z,98187.63
2023-05-15T19:05:34.017Z,98178.50
2023-05-15T19:08:36.998Z,98176.94
2023-05-15T19:11:39.666Z,98177.53
2023-05-15T19:14:42.258Z,98173.50
2023-05-15T19:17:44.947Z,98174.19
2023-05-15T19:20:51.881Z,98164.75
2023-05-15T19:23:54.498Z,98173.13
2023-05-15T19:26:57.155Z,98175.06
2023-05-15T19:29:59.925Z,98178.91
2023-05-15T19:33:02.636Z,98192.19
2023-05-15T19:36:07.428Z,98191.47
2023-05-15T19:39:09.941Z,98194.53
2023-05-15T19:42:12.476Z,98198.56
2023-05-15T19:45:15.072Z,98211.84
2023-05-15T19:48:17.583Z,98213.72
2023-05-15T19:51:21.417Z,98223.53
2023-05-15T19:54:24.012Z,98217.16
2023-05-15T19:57:26.497Z,98221.69
2023-05-15T20:00:29.078Z,98219.97
2023-05-15T20:03:33.554Z,98213.06
2023-05-15T20:06:37.549Z,98212.56
2023-05-15T20:09:40.138Z,98219.28
2023-05-15T20:12:42.611Z,98218.88
2023-05-15T20:15:45.339Z,98220.31
2023-05-15T20:18:47.972Z,98225.31
2023-05-15T20:21:51.892Z,98218.09
2023-05-15T20:24:54.634Z,98222.31
2023-05-15T20:27:58.681Z,98225.34
2023-05-15T20:31:01.593Z,98227.50
2023-05-15T20:34:07.216Z,98225.84
2023-05-15T20:37:11.099Z,98230.47
2023-05-15T20:40:15.695Z,98235.19
2023-05-15T20:43:18.236Z,98237.16
2023-05-15T20:46:21.157Z,98238.38
2023-05-15T20:49:23.785Z,98230.47
2023-05-15T20:52:27.680Z,98236.16
2023-05-15T20:55:30.350Z,98236.44
2023-05-15T20:58:33.238Z,98231.28
2023-05-15T21:01:36.366Z,98233.25
2023-05-15T21:04:39.347Z,98230.00
2023-05-15T21:07:43.440Z,98230.00
2023-05-15T21:10:50.922Z,98226.03
2023-05-15T21:13:53.455Z,98223.53
2023-05-15T21:16:56.495Z,98224.97
2023-05-15T21:20:00.952Z,98226.50
2023-05-15T21:23:04.924Z,98228.81
2023-05-15T21:26:07.690Z,98227.22
2023-05-15T21:29:10.224Z,98222.00
2023-05-15T21:32:12.763Z,98224.50
2023-05-15T21:35:15.257Z,98218.13
2023-05-15T21:38:19.093Z,98221.16
2023-05-15T21:41:22.125Z,98211.38
2023-05-15T21:44:24.786Z,98211.59
2023-05-15T21:47:27.416Z,98216.19
2023-05-15T21:50:30.060Z,98218.41
2023-05-15T21:53:33.977Z,98212.84
2023-05-15T21:56:36.794Z,98210.19
2023-05-15T21:59:39.827Z,98213.00
2023-05-15T22:02:42.930Z,98214.44
2023-05-15T22:05:45.888Z,98212.38
2023-05-15T22:08:50.037Z,98220.47
2023-05-15T22:11:52.567Z,98231.47
2023-05-15T22:14:59.046Z,98232.19
2023-05-15T22:18:05.353Z,98235.97
2023-05-15T22:21:08.561Z,98237.03
2023-05-15T22:24:12.630Z,98233.44
2023-05-15T22:27:16.865Z,98235.81
2023-05-15T22:30:19.792Z,98238.09
2023-05-15T22:33:24.096Z,98240.41
2023-05-15T22:36:26.799Z,98234.53
2023-05-15T22:39:30.789Z,98234.44
2023-05-15T22:42:33.440Z,98229.84
2023-05-15T22:45:36.193Z,98240.03
2023-05-15T22:48:38.766Z,98232.28
2023-05-15T22:51:41.391Z,98239.19
2023-05-15T22:54:45.813Z,98237.06
2023-05-15T22:57:48.321Z,98239.81
2023-05-15T23:00:51.164Z,98234.94
2023-05-15T23:03:53.813Z,98238.03
2023-05-15T23:06:56.924Z,98233.47
2023-05-15T23:10:00.890Z,98225.34
2023-05-15T23:13:03.568Z,98234.94
2023-05-15T23:16:06.690Z,98226.94
2023-05-15T23:19:09.509Z,98226.41
2023-05-15T23:22:12.752Z,98228.69
2023-05-15T23:25:16.793Z,98224.97
2023-05-15T23:28:19.484Z,98232.38
2023-05-15T23:31:22.019Z,98234.69
2023-05-15T23:34:24.914Z,98228.50
2023-05-15T23:37:27.487Z,98233.53
2023-05-15T23:40:31.565Z,98233.78
2023-05-15T23:43:34.210Z,98237.66
2023-05-15T23:46:38.569Z,98235.03
2023-05-15T23:49:42.060Z,98239.72
2023-05-15T23:52:45.228Z,98232.28
2023-05-15T23:55:49.241Z,98232.28
2023-05-15T23:58:51.805Z,98231.16
